sensor_id;sensor_type;location;lat;lon;timestamp;pressure;altitude;pressure_sealevel;temperature;humidity
37848;BME280;23688;33.130;-117.188;2022-08-11T00:00:12;99452.94;;;30.60;36.58
37848;BME280;23688;33.130;-117.188;2022-08-11T00:05:06;99446.88;;;30.11;37.54
37848;BME280;23688;33.130;-117.188;2022-08-11T00:07:33;99443.31;;;30.10;38.47
37848;BME280;23688;33.130;-117.188;2022-08-11T00:09:59;99452.53;;;30.03;39.85
37848;BME280;23688;33.130;-117.188;2022-08-11T00:12:25;99449.06;;;30.23;39.34
37848;BME280;23688;33.130;-117.188;2022-08-11T00:14:55;99449.91;;;30.47;39.36
37848;BME280;23688;33.130;-117.188;2022-08-11T00:17:22;99450.19;;;30.17;37.84
37848;BME280;23688;33.130;-117.188;2022-08-11T00:19:51;99456.22;;;30.22;37.47
37848;BME280;23688;33.130;-117.188;2022-08-11T00:22:27;99443.69;;;29.77;39.73
37848;BME280;23688;33.130;-117.188;2022-08-11T00:24:54;99445.41;;;30.25;39.48
37848;BME280;23688;33.130;-117.188;2022-08-11T00:27:30;99445.38;;;30.03;39.80
37848;BME280;23688;33.130;-117.188;2022-08-11T00:29:56;99441.81;;;30.03;39.57
37848;BME280;23688;33.130;-117.188;2022-08-11T00:32:22;99436.56;;;29.53;40.93
37848;BME280;23688;33.130;-117.188;2022-08-11T00:34:48;99432.69;;;29.61;40.39
37848;BME280;23688;33.130;-117.188;2022-08-11T00:37:18;99432.72;;;29.36;40.80
37848;BME280;23688;33.130;-117.188;2022-08-11T00:39:47;99445.94;;;29.16;40.35
37848;BME280;23688;33.130;-117.188;2022-08-11T00:42:17;99443.75;;;29.27;40.84
37848;BME280;23688;33.130;-117.188;2022-08-11T00:44:51;99445.72;;;29.22;39.40
37848;BME280;23688;33.130;-117.188;2022-08-11T01:00:22;99457.50;;;29.16;41.17
37848;BME280;23688;33.130;-117.188;2022-08-11T01:08:22;99453.63;;;29.25;40.98
37848;BME280;23688;33.130;-117.188;2022-08-11T01:11:18;99460.44;;;28.82;41.96
37848;BME280;23688;33.130;-117.188;2022-08-11T01:24:51;99459.78;;;27.89;43.17
37848;BME280;23688;33.130;-117.188;2022-08-11T01:30:06;99456.06;;;28.53;41.03
37848;BME280;23688;33.130;-117.188;2022-08-11T01:35:46;99472.84;;;28.00;40.81
37848;BME280;23688;33.130;-117.188;2022-08-11T01:46:45;99479.50;;;28.15;39.19
37848;BME280;23688;33.130;-117.188;2022-08-11T01:49:18;99475.44;;;28.31;39.16
37848;BME280;23688;33.130;-117.188;2022-08-11T01:54:54;99473.03;;;28.22;38.44
37848;BME280;23688;33.130;-117.188;2022-08-11T01:57:35;99484.13;;;28.08;37.45
37848;BME280;23688;33.130;-117.188;2022-08-11T02:00:09;99481.00;;;27.94;37.46
37848;BME280;23688;33.130;-117.188;2022-08-11T02:02:44;99486.13;;;28.02;37.81
37848;BME280;23688;33.130;-117.188;2022-08-11T02:05:22;99490.34;;;28.09;37.30
37848;BME280;23688;33.130;-117.188;2022-08-11T02:07:56;99489.69;;;28.02;37.41
37848;BME280;23688;33.130;-117.188;2022-08-11T02:11:27;99498.22;;;27.84;37.51
37848;BME280;23688;33.130;-117.188;2022-08-11T02:13:50;99500.06;;;27.49;38.47
37848;BME280;23688;33.130;-117.188;2022-08-11T02:18:46;99502.47;;;27.25;38.71
37848;BME280;23688;33.130;-117.188;2022-08-11T02:21:43;99510.34;;;26.96;38.72
37848;BME280;23688;33.130;-117.188;2022-08-11T02:24:38;99504.81;;;26.67;40.83
37848;BME280;23688;33.130;-117.188;2022-08-11T02:27:07;99509.63;;;26.53;41.22
37848;BME280;23688;33.130;-117.188;2022-08-11T02:29:41;99516.47;;;26.23;42.05
37848;BME280;23688;33.130;-117.188;2022-08-11T02:32:20;99515.44;;;26.29;41.98
37848;BME280;23688;33.130;-117.188;2022-08-11T02:37:49;99511.69;;;25.97;44.19
37848;BME280;23688;33.130;-117.188;2022-08-11T02:50:41;99521.47;;;25.50;46.37
37848;BME280;23688;33.130;-117.188;2022-08-11T03:01:05;99537.50;;;25.47;50.08
37848;BME280;23688;33.130;-117.188;2022-08-11T03:03:43;99530.22;;;25.56;51.35
37848;BME280;23688;33.130;-117.188;2022-08-11T03:06:34;99533.25;;;25.36;53.55
37848;BME280;23688;33.130;-117.188;2022-08-11T03:09:01;99539.75;;;25.20;55.45
37848;BME280;23688;33.130;-117.188;2022-08-11T03:14:52;99546.47;;;24.87;58.17
37848;BME280;23688;33.130;-117.188;2022-08-11T03:17:45;99543.84;;;24.85;58.67
37848;BME280;23688;33.130;-117.188;2022-08-11T03:20:32;99545.13;;;24.60;59.96
37848;BME280;23688;33.130;-117.188;2022-08-11T03:31:17;99557.72;;;24.44;62.85
37848;BME280;23688;33.130;-117.188;2022-08-11T03:49:31;99567.38;;;24.51;65.05
37848;BME280;23688;33.130;-117.188;2022-08-11T03:55:04;99564.22;;;24.20;67.09
37848;BME280;23688;33.130;-117.188;2022-08-11T04:05:31;99574.09;;;24.10;68.79
37848;BME280;23688;33.130;-117.188;2022-08-11T04:13:40;99580.44;;;24.66;66.48
37848;BME280;23688;33.130;-117.188;2022-08-11T04:16:06;99595.31;;;24.78;66.54
37848;BME280;23688;33.130;-117.188;2022-08-11T04:21:09;99596.03;;;24.88;65.28
37848;BME280;23688;33.130;-117.188;2022-08-11T04:29:13;99618.16;;;24.88;64.02
37848;BME280;23688;33.130;-117.188;2022-08-11T04:56:30;99608.88;;;24.55;60.01
37848;BME280;23688;33.130;-117.188;2022-08-11T05:04:58;99610.72;;;24.50;56.38
37848;BME280;23688;33.130;-117.188;2022-08-11T05:10:27;99610.72;;;24.50;56.59
37848;BME280;23688;33.130;-117.188;2022-08-11T05:13:02;99607.22;;;24.45;57.59
37848;BME280;23688;33.130;-117.188;2022-08-11T05:15:57;99601.94;;;24.46;57.57
37848;BME280;23688;33.130;-117.188;2022-08-11T05:18:46;99603.06;;;24.25;56.96
37848;BME280;23688;33.130;-117.188;2022-08-11T05:21:31;99599.75;;;24.06;55.29
37848;BME280;23688;33.130;-117.188;2022-08-11T05:24:21;99600.56;;;24.13;54.20
37848;BME280;23688;33.130;-117.188;2022-08-11T05:27:09;99604.22;;;24.03;53.24
37848;BME280;23688;33.130;-117.188;2022-08-11T05:32:45;99593.94;;;23.75;53.03
37848;BME280;23688;33.130;-117.188;2022-08-11T05:35:56;99601.00;;;23.75;53.86
37848;BME280;23688;33.130;-117.188;2022-08-11T05:38:20;99602.59;;;23.91;54.10
37848;BME280;23688;33.130;-117.188;2022-08-11T05:41:05;99596.31;;;23.97;55.67
37848;BME280;23688;33.130;-117.188;2022-08-11T05:43:49;99590.97;;;24.01;56.92
37848;BME280;23688;33.130;-117.188;2022-08-11T05:46:37;99584.06;;;23.88;58.35
37848;BME280;23688;33.130;-117.188;2022-08-11T05:49:22;99579.81;;;23.73;58.31
37848;BME280;23688;33.130;-117.188;2022-08-11T05:52:12;99575.38;;;23.74;58.51
37848;BME280;23688;33.130;-117.188;2022-08-11T05:55:06;99575.41;;;23.67;59.93
37848;BME280;23688;33.130;-117.188;2022-08-11T05:57:55;99585.94;;;23.78;60.88
37848;BME280;23688;33.130;-117.188;2022-08-11T06:00:22;99585.00;;;23.84;60.05
37848;BME280;23688;33.130;-117.188;2022-08-11T06:02:57;99584.03;;;23.89;60.48
37848;BME280;23688;33.130;-117.188;2022-08-11T06:05:35;99591.09;;;23.90;61.85
37848;BME280;23688;33.130;-117.188;2022-08-11T06:08:02;99582.28;;;23.88;61.23
37848;BME280;23688;33.130;-117.188;2022-08-11T06:10:30;99592.91;;;23.87;59.79
37848;BME280;23688;33.130;-117.188;2022-08-11T06:12:57;99600.06;;;23.79;57.81
37848;BME280;23688;33.130;-117.188;2022-08-11T06:15:25;99601.00;;;23.75;57.60
37848;BME280;23688;33.130;-117.188;2022-08-11T06:17:52;99591.28;;;23.75;58.15
37848;BME280;23688;33.130;-117.188;2022-08-11T06:20:19;99592.13;;;23.77;58.40
37848;BME280;23688;33.130;-117.188;2022-08-11T06:22:47;99585.91;;;23.80;58.62
37848;BME280;23688;33.130;-117.188;2022-08-11T06:25:19;99601.00;;;23.76;56.30
37848;BME280;23688;33.130;-117.188;2022-08-11T06:27:46;99609.88;;;23.67;56.13
37848;BME280;23688;33.130;-117.188;2022-08-11T06:30:23;99616.06;;;23.66;56.10
37848;BME280;23688;33.130;-117.188;2022-08-11T06:32:57;99614.38;;;23.61;55.38
37848;BME280;23688;33.130;-117.188;2022-08-11T06:46:30;99613.84;;;23.19;58.84
37848;BME280;23688;33.130;-117.188;2022-08-11T06:48:56;99614.78;;;23.13;57.57
37848;BME280;23688;33.130;-117.188;2022-08-11T06:51:26;99609.50;;;23.08;58.25
37848;BME280;23688;33.130;-117.188;2022-08-11T06:53:54;99614.84;;;23.07;58.60
37848;BME280;23688;33.130;-117.188;2022-08-11T06:56:25;99620.16;;;23.01;59.24
37848;BME280;23688;33.130;-117.188;2022-08-11T06:59:11;99612.25;;;22.98;59.63
37848;BME280;23688;33.130;-117.188;2022-08-11T07:04:26;99600.75;;;23.00;60.90
37848;BME280;23688;33.130;-117.188;2022-08-11T07:07:13;99610.41;;;23.06;61.81
37848;BME280;23688;33.130;-117.188;2022-08-11T07:12:53;99606.91;;;23.05;61.16
37848;BME280;23688;33.130;-117.188;2022-08-11T07:15:40;99604.22;;;23.10;61.51
37848;BME280;23688;33.130;-117.188;2022-08-11T07:18:06;99606.84;;;23.12;62.14
37848;BME280;23688;33.130;-117.188;2022-08-11T07:20:52;99604.19;;;23.13;61.98
37848;BME280;23688;33.130;-117.188;2022-08-11T07:23:38;99601.56;;;23.08;60.65
37848;BME280;23688;33.130;-117.188;2022-08-11T07:26:23;99587.53;;;23.00;60.31
37848;BME280;23688;33.130;-117.188;2022-08-11T07:29:09;99585.78;;;22.98;61.13
37848;BME280;23688;33.130;-117.188;2022-08-11T07:36:48;99586.66;;;22.95;63.58
37848;BME280;23688;33.130;-117.188;2022-08-11T07:39:19;99575.19;;;22.93;62.96
37848;BME280;23688;33.130;-117.188;2022-08-11T07:41:45;99576.06;;;22.95;64.15
37848;BME280;23688;33.130;-117.188;2022-08-11T07:44:13;99576.94;;;22.97;65.99
37848;BME280;23688;33.130;-117.188;2022-08-11T07:46:41;99583.13;;;22.98;67.20
37848;BME280;23688;33.130;-117.188;2022-08-11T07:49:25;99571.63;;;23.00;67.55
37848;BME280;23688;33.130;-117.188;2022-08-11T07:52:10;99565.47;;;23.00;68.46
37848;BME280;23688;33.130;-117.188;2022-08-11T07:57:29;99565.44;;;23.04;69.42
37848;BME280;23688;33.130;-117.188;2022-08-11T08:00:14;99561.91;;;22.99;67.83
37848;BME280;23688;33.130;-117.188;2022-08-11T08:02:58;99571.63;;;22.97;68.37
37848;BME280;23688;33.130;-117.188;2022-08-11T08:05:44;99569.84;;;22.99;70.19
37848;BME280;23688;33.130;-117.188;2022-08-11T08:08:29;99565.47;;;23.00;71.53
37848;BME280;23688;33.130;-117.188;2022-08-11T08:11:13;99568.97;;;22.97;72.03
37848;BME280;23688;33.130;-117.188;2022-08-11T08:13:58;99562.00;;;22.84;69.22
37848;BME280;23688;33.130;-117.188;2022-08-11T08:16:42;99568.28;;;22.69;68.77
37848;BME280;23688;33.130;-117.188;2022-08-11T08:19:27;99559.56;;;22.55;66.50
37848;BME280;23688;33.130;-117.188;2022-08-11T08:21:53;99556.16;;;22.39;65.84
37848;BME280;23688;33.130;-117.188;2022-08-11T08:24:19;99543.84;;;22.32;65.32
37848;BME280;23688;33.130;-117.188;2022-08-11T08:26:48;99549.16;;;22.27;65.80
37848;BME280;23688;33.130;-117.188;2022-08-11T08:29:28;99551.78;;;22.26;66.59
37848;BME280;23688;33.130;-117.188;2022-08-11T08:32:14;99557.97;;;22.25;66.54
37848;BME280;23688;33.130;-117.188;2022-08-11T08:34:41;99550.06;;;22.21;66.83
37848;BME280;23688;33.130;-117.188;2022-08-11T08:37:07;99564.16;;;22.17;67.29
37848;BME280;23688;33.130;-117.188;2022-08-11T08:39:33;99564.16;;;22.17;67.74
37848;BME280;23688;33.130;-117.188;2022-08-11T08:42:06;99562.38;;;22.18;67.78
37848;BME280;23688;33.130;-117.188;2022-08-11T08:44:35;99558.88;;;22.11;67.38
37848;BME280;23688;33.130;-117.188;2022-08-11T08:47:04;99564.19;;;22.08;67.01
37848;BME280;23688;33.130;-117.188;2022-08-11T08:49:37;99558.03;;;22.08;67.36
37848;BME280;23688;33.130;-117.188;2022-08-11T08:52:05;99557.16;;;22.06;67.42
37848;BME280;23688;33.130;-117.188;2022-08-11T08:54:33;99550.13;;;22.00;67.44
37848;BME280;23688;33.130;-117.188;2022-08-11T08:57:01;99537.78;;;21.99;67.40
37848;BME280;23688;33.130;-117.188;2022-08-11T08:59:29;99543.94;;;21.99;67.79
37848;BME280;23688;33.130;-117.188;2022-08-11T09:01:57;99535.16;;;21.96;68.08
37848;BME280;23688;33.130;-117.188;2022-08-11T09:04:24;99535.16;;;21.96;68.66
37848;BME280;23688;33.130;-117.188;2022-08-11T09:06:51;99542.19;;;22.03;69.38
37848;BME280;23688;33.130;-117.188;2022-08-11T09:09:19;99530.72;;;22.07;69.46
37848;BME280;23688;33.130;-117.188;2022-08-11T09:11:46;99530.69;;;22.12;69.74
37848;BME280;23688;33.130;-117.188;2022-08-11T09:16:47;99522.72;;;22.16;71.13
37848;BME280;23688;33.130;-117.188;2022-08-11T09:19:16;99525.34;;;22.16;71.19
37848;BME280;23688;33.130;-117.188;2022-08-11T09:21:43;99528.91;;;22.15;71.03
37848;BME280;23688;33.130;-117.188;2022-08-11T09:24:30;99528.91;;;22.09;69.60
37848;BME280;23688;33.130;-117.188;2022-08-11T09:27:14;99526.34;;;22.00;69.45
37848;BME280;23688;33.130;-117.188;2022-08-11T09:29:40;99525.47;;;21.95;70.07
37848;BME280;23688;33.130;-117.188;2022-08-11T09:32:08;99523.72;;;21.91;70.30
37848;BME280;23688;33.130;-117.188;2022-08-11T09:34:34;99519.34;;;21.85;70.16
37848;BME280;23688;33.130;-117.188;2022-08-11T09:37:02;99526.41;;;21.82;70.16
37848;BME280;23688;33.130;-117.188;2022-08-11T09:39:46;99523.78;;;21.74;70.33
37848;BME280;23688;33.130;-117.188;2022-08-11T09:42:30;99522.94;;;21.67;71.00
37848;BME280;23688;33.130;-117.188;2022-08-11T09:45:15;99524.69;;;21.65;71.39
37848;BME280;23688;33.130;-117.188;2022-08-11T09:47:41;99525.59;;;21.66;71.87
37848;BME280;23688;33.130;-117.188;2022-08-11T09:50:10;99530.88;;;21.64;72.48
37848;BME280;23688;33.130;-117.188;2022-08-11T09:52:40;99516.78;;;21.62;72.08
37848;BME280;23688;33.130;-117.188;2022-08-11T09:55:06;99523.81;;;21.60;71.54
37848;BME280;23688;33.130;-117.188;2022-08-11T09:57:38;99519.47;;;21.56;72.25
37848;BME280;23688;33.130;-117.188;2022-08-11T10:00:30;99511.53;;;21.54;72.71
37848;BME280;23688;33.130;-117.188;2022-08-11T10:02:56;99502.72;;;21.52;71.81
37848;BME280;23688;33.130;-117.188;2022-08-11T10:05:22;99514.16;;;21.50;71.61
37848;BME280;23688;33.130;-117.188;2022-08-11T10:08:25;99515.06;;;21.47;72.45
37848;BME280;23688;33.130;-117.188;2022-08-11T10:10:52;99515.06;;;21.43;72.80
37848;BME280;23688;33.130;-117.188;2022-08-11T10:13:19;99517.72;;;21.41;73.95
37848;BME280;23688;33.130;-117.188;2022-08-11T10:15:46;99519.44;;;21.37;74.72
37848;BME280;23688;33.130;-117.188;2022-08-11T10:18:14;99519.47;;;21.34;74.83
37848;BME280;23688;33.130;-117.188;2022-08-11T10:20:59;99521.22;;;21.32;75.35
37848;BME280;23688;33.130;-117.188;2022-08-11T10:23:30;99515.06;;;21.26;75.01
37848;BME280;23688;33.130;-117.188;2022-08-11T10:26:16;99520.34;;;21.26;75.40
37848;BME280;23688;33.130;-117.188;2022-08-11T10:29:00;99514.19;;;21.28;76.63
37848;BME280;23688;33.130;-117.188;2022-08-11T10:31:27;99511.53;;;21.28;76.39
37848;BME280;23688;33.130;-117.188;2022-08-11T10:34:12;99515.97;;;21.29;76.08
37848;BME280;23688;33.130;-117.188;2022-08-11T10:36:39;99517.72;;;21.27;75.31
37848;BME280;23688;33.130;-117.188;2022-08-11T10:39:27;99514.22;;;21.22;74.63
37848;BME280;23688;33.130;-117.188;2022-08-11T10:41:53;99515.97;;;21.14;74.44
37848;BME280;23688;33.130;-117.188;2022-08-11T10:44:45;99508.06;;;21.06;74.07
37848;BME280;23688;33.130;-117.188;2022-08-11T10:47:12;99514.22;;;21.04;74.46
37848;BME280;23688;33.130;-117.188;2022-08-11T10:49:57;99508.94;;;21.01;74.24
37848;BME280;23688;33.130;-117.188;2022-08-11T10:52:41;99507.19;;;21.00;74.24
37848;BME280;23688;33.130;-117.188;2022-08-11T10:55:27;99512.47;;;21.01;74.51
37848;BME280;23688;33.130;-117.188;2022-08-11T10:58:12;99513.34;;;21.03;74.01
37848;BME280;23688;33.130;-117.188;2022-08-11T11:00:56;99520.38;;;20.98;74.53
37848;BME280;23688;33.130;-117.188;2022-08-11T11:03:28;99510.72;;;20.95;75.14
37848;BME280;23688;33.130;-117.188;2022-08-11T11:06:01;99514.22;;;20.91;74.98
37848;BME280;23688;33.130;-117.188;2022-08-11T11:08:29;99519.53;;;20.85;75.28
37848;BME280;23688;33.130;-117.188;2022-08-11T11:11:14;99515.13;;;20.86;77.77
37848;BME280;23688;33.130;-117.188;2022-08-11T11:13:43;99515.09;;;20.89;78.34
37848;BME280;23688;33.130;-117.188;2022-08-11T11:16:29;99501.03;;;20.88;78.65
37848;BME280;23688;33.130;-117.188;2022-08-11T11:19:13;99501.91;;;20.93;79.89
37848;BME280;23688;33.130;-117.188;2022-08-11T11:21:43;99496.63;;;21.06;82.48
37848;BME280;23688;33.130;-117.188;2022-08-11T11:24:19;99501.00;;;21.07;80.56
37848;BME280;23688;33.130;-117.188;2022-08-11T11:30:06;99501.91;;;20.97;79.31
37848;BME280;23688;33.130;-117.188;2022-08-11T11:35:24;99491.34;;;20.97;79.55
37848;BME280;23688;33.130;-117.188;2022-08-11T11:37:52;99484.34;;;20.97;78.82
37848;BME280;23688;33.130;-117.188;2022-08-11T11:40:19;99484.34;;;20.92;78.28
37848;BME280;23688;33.130;-117.188;2022-08-11T11:42:48;99490.47;;;20.88;78.39
37848;BME280;23688;33.130;-117.188;2022-08-11T11:45:15;99496.66;;;20.86;78.48
37848;BME280;23688;33.130;-117.188;2022-08-11T11:47:41;99488.72;;;20.86;78.23
37848;BME280;23688;33.130;-117.188;2022-08-11T11:50:08;99491.38;;;20.83;78.43
37848;BME280;23688;33.130;-117.188;2022-08-11T11:52:34;99498.41;;;20.84;78.39
37848;BME280;23688;33.130;-117.188;2022-08-11T11:55:02;99493.13;;;20.81;79.04
37848;BME280;23688;33.130;-117.188;2022-08-11T11:57:28;99494.91;;;20.80;79.85
37848;BME280;23688;33.130;-117.188;2022-08-11T12:00:13;99499.28;;;20.73;79.74
37848;BME280;23688;33.130;-117.188;2022-08-11T12:02:59;99488.72;;;20.69;79.89
37848;BME280;23688;33.130;-117.188;2022-08-11T12:05:26;99485.22;;;20.73;79.64
37848;BME280;23688;33.130;-117.188;2022-08-11T12:07:53;99495.78;;;20.78;79.17
37848;BME280;23688;33.130;-117.188;2022-08-11T12:10:49;99490.47;;;20.82;79.19
37848;BME280;23688;33.130;-117.188;2022-08-11T12:13:37;99489.63;;;20.80;78.64
37848;BME280;23688;33.130;-117.188;2022-08-11T12:16:07;99483.47;;;20.78;78.26
37848;BME280;23688;33.130;-117.188;2022-08-11T12:18:33;99486.06;;;20.75;78.46
37848;BME280;23688;33.130;-117.188;2022-08-11T12:21:01;99485.22;;;20.73;78.33
37848;BME280;23688;33.130;-117.188;2022-08-11T12:23:27;99484.31;;;20.74;79.25
37848;BME280;23688;33.130;-117.188;2022-08-11T12:26:15;99484.31;;;20.77;79.33
37848;BME280;23688;33.130;-117.188;2022-08-11T12:29:00;99481.69;;;20.79;79.25
37848;BME280;23688;33.130;-117.188;2022-08-11T12:31:27;99477.31;;;20.78;79.72
37848;BME280;23688;33.130;-117.188;2022-08-11T12:34:03;99474.66;;;20.78;79.76
37848;BME280;23688;33.130;-117.188;2022-08-11T12:36:45;99475.53;;;20.81;81.38
37848;BME280;23688;33.130;-117.188;2022-08-11T12:39:15;99478.19;;;20.87;82.71
37848;BME280;23688;33.130;-117.188;2022-08-11T12:41:43;99479.06;;;20.74;80.99
37848;BME280;23688;33.130;-117.188;2022-08-11T12:44:28;99476.38;;;20.52;80.17
37848;BME280;23688;33.130;-117.188;2022-08-11T12:47:16;99464.06;;;20.47;80.14
37848;BME280;23688;33.130;-117.188;2022-08-11T12:49:43;99472.00;;;20.48;80.28
37848;BME280;23688;33.130;-117.188;2022-08-11T12:52:29;99468.47;;;20.56;80.73
37848;BME280;23688;33.130;-117.188;2022-08-11T13:00:11;99491.38;;;20.66;80.49
37848;BME280;23688;33.130;-117.188;2022-08-11T13:02:55;99488.72;;;20.69;80.29
37848;BME280;23688;33.130;-117.188;2022-08-11T13:05:41;99492.25;;;20.74;80.97
37848;BME280;23688;33.130;-117.188;2022-08-11T13:08:07;99494.88;;;20.77;80.27
37848;BME280;23688;33.130;-117.188;2022-08-11T13:10:34;99502.81;;;20.76;78.99
37848;BME280;23688;33.130;-117.188;2022-08-11T13:13:19;99507.19;;;20.75;78.51
37848;BME280;23688;33.130;-117.188;2022-08-11T13:15:46;99501.06;;;20.78;78.59
37848;BME280;23688;33.130;-117.188;2022-08-11T13:18:17;99504.56;;;20.73;78.63
37848;BME280;23688;33.130;-117.188;2022-08-11T13:20:53;99514.22;;;20.74;79.13
37848;BME280;23688;33.130;-117.188;2022-08-11T13:23:21;99509.81;;;20.75;79.28
37848;BME280;23688;33.130;-117.188;2022-08-11T13:25:48;99514.22;;;20.76;78.95
37848;BME280;23688;33.130;-117.188;2022-08-11T13:28:14;99512.47;;;20.77;78.75
37848;BME280;23688;33.130;-117.188;2022-08-11T13:30:41;99518.66;;;20.80;78.82
37848;BME280;23688;33.130;-117.188;2022-08-11T13:33:25;99515.09;;;20.84;78.78
37848;BME280;23688;33.130;-117.188;2022-08-11T13:35:52;99528.31;;;20.89;78.46
37848;BME280;23688;33.130;-117.188;2022-08-11T13:38:18;99528.28;;;20.92;78.72
37848;BME280;23688;33.130;-117.188;2022-08-11T13:40:47;99528.31;;;20.93;78.90
37848;BME280;23688;33.130;-117.188;2022-08-11T13:43:13;99530.09;;;20.90;78.63
37848;BME280;23688;33.130;-117.188;2022-08-11T13:45:40;99534.47;;;20.86;79.10
37848;BME280;23688;33.130;-117.188;2022-08-11T13:48:07;99533.56;;;20.84;78.90
37848;BME280;23688;33.130;-117.188;2022-08-11T13:50:33;99529.16;;;20.85;78.59
37848;BME280;23688;33.130;-117.188;2022-08-11T13:53:19;99535.34;;;20.79;78.04
37848;BME280;23688;33.130;-117.188;2022-08-11T13:55:46;99544.13;;;20.81;78.10
37848;BME280;23688;33.130;-117.188;2022-08-11T13:58:13;99548.56;;;20.85;77.95
37848;BME280;23688;33.130;-117.188;2022-08-11T14:00:40;99554.69;;;20.93;77.41
37848;BME280;23688;33.130;-117.188;2022-08-11T14:03:07;99548.53;;;21.01;77.40
37848;BME280;23688;33.130;-117.188;2022-08-11T14:05:37;99547.66;;;21.11;77.36
37848;BME280;23688;33.130;-117.188;2022-08-11T14:08:06;99541.50;;;21.20;76.86
37848;BME280;23688;33.130;-117.188;2022-08-11T14:10:34;99555.56;;;21.28;76.93
37848;BME280;23688;33.130;-117.188;2022-08-11T14:13:05;99548.53;;;21.34;76.61
37848;BME280;23688;33.130;-117.188;2022-08-11T14:15:49;99545.00;;;21.43;76.21
37848;BME280;23688;33.130;-117.188;2022-08-11T14:18:20;99550.28;;;21.37;75.91
37848;BME280;23688;33.130;-117.188;2022-08-11T14:20:52;99554.69;;;21.30;75.22
37848;BME280;23688;33.130;-117.188;2022-08-11T14:23:38;99545.88;;;21.33;74.96
37848;BME280;23688;33.130;-117.188;2022-08-11T14:26:05;99554.69;;;21.44;75.64
37848;BME280;23688;33.130;-117.188;2022-08-11T14:29:00;99552.91;;;21.54;75.23
37848;BME280;23688;33.130;-117.188;2022-08-11T14:31:27;99549.38;;;21.56;75.10
37848;BME280;23688;33.130;-117.188;2022-08-11T14:33:54;99552.88;;;21.60;74.39
37848;BME280;23688;33.130;-117.188;2022-08-11T14:36:21;99554.63;;;21.73;73.59
37848;BME280;23688;33.130;-117.188;2022-08-11T14:38:48;99558.09;;;21.85;73.22
37848;BME280;23688;33.130;-117.188;2022-08-11T14:41:14;99560.75;;;21.85;74.70
37848;BME280;23688;33.130;-117.188;2022-08-11T14:43:58;99559.81;;;22.01;75.21
37848;BME280;23688;33.130;-117.188;2022-08-11T14:46:43;99561.53;;;22.08;76.03
37848;BME280;23688;33.130;-117.188;2022-08-11T14:49:27;99554.41;;;22.29;75.50
37848;BME280;23688;33.130;-117.188;2022-08-11T14:51:53;99557.94;;;22.32;75.17
37848;BME280;23688;33.130;-117.188;2022-08-11T14:54:24;99561.53;;;22.20;75.95
37848;BME280;23688;33.130;-117.188;2022-08-11T14:57:10;99570.31;;;22.21;78.42
37848;BME280;23688;33.130;-117.188;2022-08-11T14:59:36;99564.94;;;22.38;78.26
37848;BME280;23688;33.130;-117.188;2022-08-11T15:02:03;99566.66;;;22.48;78.71
37848;BME280;23688;33.130;-117.188;2022-08-11T15:04:48;99563.94;;;22.62;79.30
37848;BME280;23688;33.130;-117.188;2022-08-11T15:07:14;99563.16;;;22.46;80.59
37848;BME280;23688;33.130;-117.188;2022-08-11T15:09:40;99556.06;;;22.50;81.71
37848;BME280;23688;33.130;-117.188;2022-08-11T15:12:09;99563.09;;;22.58;81.30
37848;BME280;23688;33.130;-117.188;2022-08-11T15:14:43;99562.09;;;22.72;80.94
37848;BME280;23688;33.130;-117.188;2022-08-11T15:17:29;99562.00;;;22.84;80.30
37848;BME280;23688;33.130;-117.188;2022-08-11T15:19:59;99561.94;;;22.92;80.36
37848;BME280;23688;33.130;-117.188;2022-08-11T15:22:45;99567.06;;;23.16;78.96
37848;BME280;23688;33.130;-117.188;2022-08-11T15:25:29;99571.44;;;23.23;77.73
37848;BME280;23688;33.130;-117.188;2022-08-11T15:27:58;99574.06;;;23.26;77.52
37848;BME280;23688;33.130;-117.188;2022-08-11T15:30:43;99578.31;;;23.44;78.11
37848;BME280;23688;33.130;-117.188;2022-08-11T15:33:28;99577.91;;;23.84;76.08
37848;BME280;23688;33.130;-117.188;2022-08-11T15:36:13;99569.94;;;23.86;75.96
37848;BME280;23688;33.130;-117.188;2022-08-11T15:39:01;99572.59;;;23.87;76.30
37848;BME280;23688;33.130;-117.188;2022-08-11T15:41:47;99574.34;;;23.87;75.90
37848;BME280;23688;33.130;-117.188;2022-08-11T15:44:34;99565.31;;;24.05;75.18
37848;BME280;23688;33.130;-117.188;2022-08-11T15:47:22;99567.47;;;24.40;73.29
37848;BME280;23688;33.130;-117.188;2022-08-11T15:49:51;99562.97;;;24.50;72.11
37848;BME280;23688;33.130;-117.188;2022-08-11T15:52:19;99563.75;;;24.56;70.26
37848;BME280;23688;33.130;-117.188;2022-08-11T15:54:46;99568.19;;;24.56;70.58
37848;BME280;23688;33.130;-117.188;2022-08-11T15:57:13;99553.63;;;24.82;68.88
37848;BME280;23688;33.130;-117.188;2022-08-11T16:00:01;99560.91;;;24.69;69.09
37848;BME280;23688;33.130;-117.188;2022-08-11T16:02:46;99556.72;;;24.54;66.80
37848;BME280;23688;33.130;-117.188;2022-08-11T16:05:19;99558.16;;;24.75;66.07
37848;BME280;23688;33.130;-117.188;2022-08-11T16:07:46;99561.72;;;24.74;68.06
37848;BME280;23688;33.130;-117.188;2022-08-11T16:10:15;99551.94;;;24.77;67.20
37848;BME280;23688;33.130;-117.188;2022-08-11T16:18:43;99552.91;;;25.28;62.31
37848;BME280;23688;33.130;-117.188;2022-08-11T16:21:18;99549.31;;;25.29;61.94
37848;BME280;23688;33.130;-117.188;2022-08-11T16:23:48;99538.38;;;25.46;59.05
37848;BME280;23688;33.130;-117.188;2022-08-11T16:26:16;99535.38;;;25.66;59.45
37848;BME280;23688;33.130;-117.188;2022-08-11T16:28:42;99539.25;;;25.94;60.49
37848;BME280;23688;33.130;-117.188;2022-08-11T16:31:09;99532.69;;;26.11;57.76
37848;BME280;23688;33.130;-117.188;2022-08-11T16:33:37;99538.03;;;26.11;57.29